createdAt,value
2018-12-27T00:01:27.664Z,5.77
2018-12-27T00:06:46.476Z,6.17
2018-12-27T00:12:05.114Z,5.83
2018-12-27T00:17:23.825Z,6.30
2018-12-27T00:22:42.761Z,6.03
2018-12-27T00:28:01.767Z,6.10
2018-12-27T00:33:20.659Z,6.07
2018-12-27T00:38:39.436Z,6.33
2018-12-27T00:43:58.198Z,5.50
2018-12-27T00:49:16.858Z,5.33
2018-12-27T00:54:35.681Z,4.80
2018-12-27T00:59:54.356Z,4.77
2018-12-27T01:05:13.017Z,5.87
2018-12-27T01:10:32.180Z,4.93
2018-12-27T01:15:50.777Z,4.65
2018-12-27T01:21:09.485Z,5.17
2018-12-27T01:26:28.148Z,4.57
2018-12-27T01:31:50.555Z,4.97
2018-12-27T01:37:07.262Z,5.07
2018-12-27T01:42:25.881Z,4.90
2018-12-27T01:47:44.602Z,5.40
2018-12-27T01:53:03.455Z,4.63
2018-12-27T01:58:22.151Z,5.57
2018-12-27T02:03:40.793Z,4.77
2018-12-27T02:08:59.441Z,5.50
2018-12-27T02:14:18.152Z,4.00
2018-12-27T02:19:36.750Z,4.53
2018-12-27T02:24:55.651Z,4.60
2018-12-27T02:30:14.286Z,4.58
2018-12-27T02:35:33.042Z,4.43
2018-12-27T02:40:51.739Z,4.27
2018-12-27T02:46:10.398Z,4.27
2018-12-27T02:51:28.928Z,4.47
2018-12-27T02:56:47.626Z,5.17
2018-12-27T03:02:06.249Z,4.20
2018-12-27T03:07:24.875Z,4.67
2018-12-27T03:12:43.815Z,5.00
2018-12-27T03:18:02.486Z,4.47
2018-12-27T03:23:21.164Z,4.67
2018-12-27T03:28:39.930Z,4.30
2018-12-27T03:33:58.556Z,4.17
2018-12-27T03:39:17.510Z,4.33
2018-12-27T03:44:36.296Z,4.10
2018-12-27T03:49:54.980Z,4.50
2018-12-27T03:55:13.914Z,4.22
2018-12-27T04:00:32.611Z,3.60
2018-12-27T04:05:51.700Z,4.10
2018-12-27T04:11:10.802Z,3.87
2018-12-27T04:16:29.442Z,3.30
2018-12-27T04:21:48.123Z,3.97
2018-12-27T04:27:06.662Z,3.70
2018-12-27T04:32:25.543Z,3.37
2018-12-27T04:37:44.159Z,3.83
2018-12-27T04:43:02.988Z,4.17
2018-12-27T04:48:21.616Z,3.37
2018-12-27T04:53:40.625Z,3.87
2018-12-27T04:58:59.298Z,3.60
2018-12-27T05:04:18.550Z,3.93
2018-12-27T05:09:37.650Z,4.07
2018-12-27T05:14:56.243Z,3.50
2018-12-27T05:20:14.815Z,4.27
2018-12-27T05:25:33.468Z,3.70
2018-12-27T05:30:52.091Z,3.83
2018-12-27T05:36:10.943Z,3.53
2018-12-27T05:41:29.601Z,3.60
2018-12-27T05:46:48.223Z,3.23
2018-12-27T05:52:06.724Z,4.27
2018-12-27T05:57:25.368Z,3.73
2018-12-27T06:02:44.262Z,3.90
2018-12-27T06:08:03.222Z,4.17
2018-12-27T06:13:22.115Z,3.70
2018-12-27T06:18:40.691Z,3.83
2018-12-27T06:23:59.397Z,3.57
2018-12-27T06:29:18.095Z,3.60
2018-12-27T06:34:41.349Z,3.90
2018-12-27T06:39:57.424Z,4.17
2018-12-27T06:45:16.303Z,3.33
2018-12-27T06:50:34.880Z,3.87
2018-12-27T06:55:53.527Z,3.60
2018-12-27T07:01:12.227Z,3.37
2018-12-27T07:06:30.967Z,3.58
2018-12-27T07:11:49.547Z,2.73
2018-12-27T07:17:08.204Z,3.43
2018-12-27T07:22:26.703Z,3.80
2018-12-27T07:27:45.345Z,3.73
2018-12-27T07:33:04.272Z,3.67
2018-12-27T07:38:22.805Z,3.80
2018-12-27T07:43:41.444Z,3.43
2018-12-27T07:49:00.086Z,3.37
2018-12-27T07:54:18.755Z,3.90
2018-12-27T07:59:37.400Z,3.80
2018-12-27T08:04:56.020Z,3.77
2018-12-27T08:10:14.665Z,3.60
2018-12-27T08:15:33.211Z,4.03
2018-12-27T08:20:51.783Z,4.13
2018-12-27T08:26:10.348Z,6.13
2018-12-27T08:31:28.950Z,4.62
2018-12-27T08:36:47.617Z,7.17
2018-12-27T08:42:06.214Z,7.90
2018-12-27T08:47:25.682Z,4.83
2018-12-27T08:52:44.775Z,3.77
2018-12-27T08:58:03.441Z,3.93
2018-12-27T09:03:21.984Z,5.03
2018-12-27T09:08:40.725Z,5.20
2018-12-27T09:13:59.396Z,5.10
2018-12-27T09:19:18.095Z,4.97
2018-12-27T09:24:38.382Z,5.10
2018-12-27T09:29:56.949Z,7.30
2018-12-27T09:35:15.670Z,5.45
2018-12-27T09:40:34.293Z,7.90
2018-12-27T09:45:52.989Z,4.87
2018-12-27T09:51:11.709Z,5.93
2018-12-27T09:56:30.261Z,4.97
2018-12-27T10:01:49.019Z,4.13
2018-12-27T10:07:07.731Z,3.80
2018-12-27T10:12:27.648Z,4.90
2018-12-27T10:17:46.301Z,4.83
2018-12-27T10:23:05.060Z,2.58
2018-12-27T10:28:23.872Z,3.20
2018-12-27T10:33:42.578Z,3.17
2018-12-27T10:39:01.225Z,3.13
2018-12-27T10:44:19.771Z,4.23
2018-12-27T10:49:38.716Z,4.30
2018-12-27T10:54:57.537Z,3.87
2018-12-27T11:00:16.314Z,3.00
2018-12-27T11:05:34.957Z,3.08
2018-12-27T11:10:53.599Z,2.73
2018-12-27T11:16:12.241Z,3.03
2018-12-27T11:21:32.476Z,3.10
2018-12-27T11:26:51.293Z,3.43
2018-12-27T11:32:15.489Z,3.02
2018-12-27T11:37:34.147Z,3.53
2018-12-27T11:42:52.975Z,3.37
2018-12-27T11:48:11.611Z,6.67
2018-12-27T11:53:30.203Z,3.20
2018-12-27T11:58:50.100Z,3.00
2018-12-27T12:04:08.824Z,2.60
2018-12-27T12:09:27.569Z,2.20
2018-12-27T12:14:46.217Z,1.83
2018-12-27T12:20:07.431Z,1.72
2018-12-27T12:25:26.134Z,1.63
2018-12-27T12:30:44.794Z,1.90
2018-12-27T12:36:10.378Z,1.80
2018-12-27T12:41:38.606Z,2.70
2018-12-27T12:46:45.169Z,2.00
2018-12-27T12:52:03.824Z,4.30
2018-12-27T12:57:22.589Z,4.57
2018-12-27T13:02:41.126Z,2.57
2018-12-27T13:07:59.908Z,2.50
2018-12-27T13:13:18.363Z,2.10
2018-12-27T13:18:36.896Z,2.50
2018-12-27T13:23:55.432Z,2.77
2018-12-27T13:29:13.953Z,3.50
2018-12-27T13:34:32.422Z,3.07
2018-12-27T13:39:50.889Z,2.50
2018-12-27T13:45:09.345Z,2.20
2018-12-27T13:50:27.883Z,2.67
2018-12-27T13:55:46.346Z,2.40
2018-12-27T14:01:18.527Z,2.70
2018-12-27T14:17:40.185Z,2.40
2018-12-27T14:22:58.717Z,2.77
2018-12-27T14:28:17.173Z,2.97
2018-12-27T14:33:35.631Z,3.33
2018-12-27T14:38:54.092Z,2.57
2018-12-27T14:44:12.552Z,2.50
2018-12-27T14:49:31.004Z,3.20
2018-12-27T14:54:49.543Z,2.80
2018-12-27T15:00:47.894Z,3.10
2018-12-27T15:06:06.361Z,3.13
2018-12-27T15:11:25.238Z,4.80
2018-12-27T15:16:45.036Z,4.40
2018-12-27T15:22:03.974Z,2.90
2018-12-27T15:27:22.456Z,3.87
2018-12-27T15:32:40.910Z,2.80
2018-12-27T15:37:59.376Z,2.60
2018-12-27T15:43:18.256Z,3.67
2018-12-27T15:48:36.711Z,3.90
2018-12-27T15:53:55.169Z,3.60
2018-12-27T15:59:13.641Z,3.53
2018-12-27T16:04:32.109Z,3.67
2018-12-27T16:09:50.574Z,3.20
2018-12-27T16:15:09.115Z,3.23
2018-12-27T16:20:27.646Z,3.47
2018-12-27T16:25:46.104Z,4.83
2018-12-27T16:31:04.699Z,3.70
2018-12-27T16:41:55.736Z,3.83
2018-12-27T16:47:14.274Z,3.30
2018-12-27T16:52:32.989Z,3.22
2018-12-27T16:57:51.795Z,8.80
2018-12-27T17:03:10.330Z,6.40
2018-12-27T17:08:28.796Z,6.70
2018-12-27T17:13:47.322Z,6.07
2018-12-27T17:19:05.857Z,6.45
2018-12-27T17:24:24.319Z,6.27
2018-12-27T17:29:42.845Z,5.12
2018-12-27T17:35:01.307Z,4.37
2018-12-27T17:40:19.769Z,5.77
2018-12-27T17:45:38.226Z,3.53
2018-12-27T17:50:56.774Z,4.60
2018-12-27T17:56:15.248Z,5.73
2018-12-27T18:01:33.718Z,6.20
2018-12-27T18:06:52.183Z,6.50
2018-12-27T18:12:10.665Z,7.37
2018-12-27T18:17:29.518Z,7.77
2018-12-27T18:22:47.984Z,7.63
2018-12-27T18:28:06.458Z,5.57
2018-12-27T18:33:24.922Z,5.23
2018-12-27T18:49:46.554Z,5.00
2018-12-27T18:55:45.608Z,4.90
2018-12-27T19:01:04.222Z,4.83
2018-12-27T19:06:22.886Z,4.73
2018-12-27T19:12:19.933Z,4.60
2018-12-27T19:18:18.325Z,4.87
2018-12-27T19:23:36.784Z,4.30
2018-12-27T19:28:55.246Z,5.00
2018-12-27T19:34:13.716Z,5.90
2018-12-27T19:39:32.197Z,5.83
2018-12-27T19:50:23.311Z,5.10
2018-12-27T19:55:41.913Z,6.50
2018-12-27T20:06:30.835Z,5.23
2018-12-27T20:11:49.295Z,5.27
2018-12-27T20:17:08.030Z,4.90
2018-12-27T20:22:26.498Z,5.17
2018-12-27T20:27:45.039Z,5.07
2018-12-27T20:38:36.019Z,5.57
2018-12-27T20:43:54.483Z,5.07
2018-12-27T20:49:12.957Z,5.97
2018-12-27T20:54:31.418Z,5.63
2018-12-27T20:59:49.877Z,6.30
2018-12-27T21:05:08.432Z,5.70
2018-12-27T21:10:26.909Z,5.90
2018-12-27T21:15:45.458Z,6.60
2018-12-27T21:21:03.937Z,8.23
2018-12-27T21:26:22.464Z,8.23
2018-12-27T21:31:40.931Z,8.83
2018-12-27T21:36:59.469Z,7.30
2018-12-27T21:42:17.935Z,7.77
2018-12-27T21:47:36.408Z,7.37
2018-12-27T21:52:54.884Z,7.47
2018-12-27T21:58:13.346Z,6.60
2018-12-27T22:03:31.815Z,6.70
2018-12-27T22:08:50.280Z,6.40
2018-12-27T22:14:08.746Z,6.90
2018-12-27T22:19:27.215Z,6.10
2018-12-27T22:24:45.674Z,6.10
2018-12-27T22:30:44.064Z,4.73
2018-12-27T22:36:02.791Z,6.10
2018-12-27T22:41:21.628Z,6.00
2018-12-27T22:46:40.099Z,5.97
2018-12-27T22:51:58.558Z,6.50
2018-12-27T23:02:47.548Z,7.93
2018-12-27T23:08:06.155Z,6.87
2018-12-27T23:13:24.620Z,6.97
2018-12-27T23:18:43.153Z,6.73
2018-12-27T23:24:20.979Z,6.50
2018-12-27T23:29:39.514Z,7.73
2018-12-27T23:34:57.980Z,7.15
2018-12-27T23:40:16.521Z,6.43
2018-12-27T23:45:35.022Z,6.47
2018-12-27T23:50:53.559Z,5.62
2018-12-27T23:56:12.158Z,6.43
